KCTY/CTY METAR and TAF weather

Enter ICAO airport designator
Station Type Date Time Source
KCTY METAR 2019/06/16 07:35 UTC NOAA

KCTY 160735Z AUTO 08003KT 10SM CLR 23/22 A3002 RMK AO2 T02280223


Station Type Date Time Source
KCTY Decoded METAR 2019/06/16 07:35 UTC NOAA

CROSS CITY AIRPORT, FL, United States (KCTY) 29-38N 083-06W 12M
Jun 16, 2019 - 03:35 AM EDT / 2019.06.16 0735 UTC
Wind: from the E (080 degrees) at 3 MPH (3 KT):0
Visibility: 10 mile(s):0
Sky conditions: clear
Temperature: 73.0 F (22.8 C)
Dew Point: 72.1 F (22.3 C)
Relative Humidity: 97%
Pressure (altimeter): 30.02 in. Hg (1016 hPa)
ob: KCTY 160735Z AUTO 08003KT 10SM CLR 23/22 A3002 RMK AO2 T02280223
cycle: 7

Station Type Date Time Source
KCTY TAF UTC NOAA

Error!

Example: see airport list